Time;durP1;ratioP1;P1;durP2;ratioP2;P2;SDS_P1;SDS_P2;PMS_P1;PMS_P2;Temp;Humidity;BMP_temperature;BMP_pressure;BME280_temperature;BME280_humidity;BME280_pressure;Samples;Min_cycle;Max_cycle;Signal;HPM_P1;HPM_P2
2022/03/24 00:00:31;;;;;;;46.60;35.30;;;8.10;91.70;;;;;;5070034;27;39809;-53
2022/03/24 00:02:59;;;;;;;51.10;38.70;;;8.00;91.80;;;;;;5071060;27;37624;-52
2022/03/24 00:05:26;;;;;;;51.63;37.35;;;8.00;91.90;;;;;;5069842;27;35643;-52
2022/03/24 00:07:55;;;;;;;49.15;35.67;;;8.00;92.00;;;;;;5070014;27;40921;-52
2022/03/24 00:10:23;;;;;;;50.58;35.97;;;8.00;92.10;;;;;;5070234;28;38019;-52
2022/03/24 00:12:52;;;;;;;48.72;35.58;;;7.90;92.20;;;;;;5071213;27;37696;-52
2022/03/24 00:15:19;;;;;;;49.45;36.40;;;7.90;92.20;;;;;;5070373;28;36970;-52
2022/03/24 00:17:48;;;;;;;48.92;36.80;;;7.80;92.40;;;;;;5071894;28;38999;-53
2022/03/24 00:20:15;;;;;;;51.97;39.40;;;7.90;92.50;;;;;;5072101;28;38379;-53
2022/03/24 00:22:43;;;;;;;54.05;39.28;;;7.80;92.40;;;;;;5074725;27;37932;-53
2022/03/24 00:25:11;;;;;;;50.97;37.28;;;7.90;92.50;;;;;;5075147;27;36536;-53
2022/03/24 00:27:39;;;;;;;49.95;37.00;;;7.70;92.60;;;;;;5074573;27;38676;-51
2022/03/24 00:30:08;;;;;;;49.28;37.63;;;7.80;92.70;;;;;;5074558;27;39181;-51
2022/03/24 00:32:36;;;;;;;46.65;36.22;;;7.80;92.60;;;;;;5074587;28;37743;-51
2022/03/24 00:35:05;;;;;;;48.08;34.65;;;7.80;92.60;;;;;;5074015;28;36655;-53
2022/03/24 00:37:32;;;;;;;48.75;36.95;;;7.80;92.70;;;;;;5074002;27;37408;-52
2022/03/24 00:40:06;;;;;;;47.55;35.15;;;7.70;92.60;;;;;;5073882;28;38249;-52
2022/03/24 00:42:35;;;;;;;47.97;35.90;;;7.70;92.90;;;;;;5075260;28;37896;-52
2022/03/24 00:45:04;;;;;;;51.28;35.38;;;7.70;93.00;;;;;;5075462;28;36502;-52
2022/03/24 00:47:34;;;;;;;44.13;30.45;;;7.60;93.10;;;;;;5074146;27;37500;-53
2022/03/24 00:50:01;;;;;;;53.83;37.83;;;7.50;93.20;;;;;;5073770;27;36621;-52
2022/03/24 00:52:30;;;;;;;55.08;38.17;;;7.50;93.70;;;;;;5073308;28;39860;-53
2022/03/24 00:54:57;;;;;;;54.05;37.78;;;7.50;94.10;;;;;;5073888;28;36727;-53
2022/03/24 00:57:25;;;;;;;47.13;34.05;;;7.50;94.20;;;;;;5073532;27;37362;-53
2022/03/24 00:59:52;;;;;;;48.17;34.08;;;7.50;94.00;;;;;;5073444;28;37851;-53
2022/03/24 01:02:19;;;;;;;58.42;39.53;;;7.50;94.10;;;;;;5074017;27;40237;-51
2022/03/24 01:04:46;;;;;;;47.00;30.40;;;7.50;94.30;;;;;;5073808;28;38787;-53
2022/03/24 01:07:14;;;;;;;54.63;34.90;;;7.50;94.20;;;;;;5073771;27;37621;-53
2022/03/24 01:09:43;;;;;;;41.22;31.45;;;7.40;94.30;;;;;;5073336;27;37604;-52
2022/03/24 01:12:11;;;;;;;46.17;32.72;;;7.30;93.90;;;;;;5072908;28;38338;-52
2022/03/24 01:14:39;;;;;;;44.08;31.08;;;7.30;94.00;;;;;;5073005;27;36887;-52
2022/03/24 01:17:07;;;;;;;51.63;35.47;;;7.20;94.00;;;;;;5072285;27;39463;-51
2022/03/24 01:19:35;;;;;;;47.92;35.08;;;7.10;94.10;;;;;;5072893;27;38129;-53
2022/03/24 01:22:03;;;;;;;44.88;33.78;;;7.10;94.30;;;;;;5072205;27;36225;-53
2022/03/24 01:24:30;;;;;;;52.20;36.50;;;7.10;94.30;;;;;;5073554;27;38447;-52
2022/03/24 01:26:59;;;;;;;49.53;35.78;;;7.10;94.20;;;;;;5072678;27;37830;-52
2022/03/24 01:29:26;;;;;;;53.33;36.75;;;7.10;94.20;;;;;;5073524;27;37886;-52
2022/03/24 01:31:54;;;;;;;51.88;36.05;;;7.10;94.10;;;;;;5073478;27;36171;-51
2022/03/24 01:34:21;;;;;;;53.20;37.45;;;7.10;94.20;;;;;;5073598;28;38006;-53
2022/03/24 01:36:48;;;;;;;54.33;39.15;;;7.10;94.20;;;;;;5073727;27;36131;-53
2022/03/24 01:39:15;;;;;;;55.83;39.83;;;7.10;94.40;;;;;;5072403;27;39025;-51
2022/03/24 01:41:46;;;;;;;57.60;39.33;;;7.10;94.40;;;;;;5073498;27;37238;-53
2022/03/24 01:44:17;;;;;;;53.13;38.10;;;7.10;94.50;;;;;;5072402;27;36892;-52
2022/03/24 01:46:59;;;;;;;54.70;36.97;;;7.10;94.60;;;;;;5072571;28;37180;-53
2022/03/24 01:49:28;;;;;;;52.05;36.80;;;7.10;94.90;;;;;;5072588;28;36582;-53
2022/03/24 01:51:56;;;;;;;54.22;38.90;;;7.10;94.80;;;;;;5072998;28;38235;-53
2022/03/24 01:54:25;;;;;;;58.35;40.03;;;7.10;94.50;;;;;;5072262;27;35374;-52
2022/03/24 01:56:53;;;;;;;53.25;38.58;;;7.00;94.60;;;;;;5073301;28;37556;-53
2022/03/24 01:59:22;;;;;;;55.78;38.53;;;6.90;94.70;;;;;;5072947;28;38010;-52
2022/03/24 02:01:49;;;;;;;54.55;38.17;;;6.90;94.90;;;;;;5072918;28;36344;-53
2022/03/24 02:04:17;;;;;;;51.67;37.53;;;6.90;94.90;;;;;;5073028;27;36155;-52
2022/03/24 02:06:45;;;;;;;58.03;40.80;;;6.90;94.80;;;;;;5072591;28;37579;-52
2022/03/24 02:09:13;;;;;;;55.70;36.67;;;6.90;94.80;;;;;;5071850;27;38470;-53
2022/03/24 02:11:41;;;;;;;55.72;38.92;;;6.90;94.80;;;;;;5072651;28;37670;-53
2022/03/24 02:14:09;;;;;;;55.00;39.53;;;6.90;94.80;;;;;;5072751;28;34503;-53
2022/03/24 02:16:39;;;;;;;57.35;39.17;;;6.90;94.90;;;;;;5072904;28;36792;-53
2022/03/24 02:19:11;;;;;;;51.80;36.92;;;6.80;95.00;;;;;;5073120;28;37783;-52
2022/03/24 02:21:39;;;;;;;51.50;36.08;;;6.80;95.10;;;;;;5072461;27;37639;-51
2022/03/24 02:24:08;;;;;;;54.03;37.10;;;6.70;95.10;;;;;;5071799;27;37016;-51
2022/03/24 02:26:37;;;;;;;50.20;35.28;;;6.70;95.20;;;;;;5073113;28;38031;-52
2022/03/24 02:29:07;;;;;;;54.35;37.00;;;6.70;95.10;;;;;;5072567;27;37590;-50
2022/03/24 02:31:38;;;;;;;50.70;35.97;;;6.70;95.10;;;;;;5072387;27;36195;-55
2022/03/24 02:36:53;;;;;;;54.72;35.95;;;6.70;95.20;;;;;;5073116;28;37477;-52
2022/03/24 02:39:21;;;;;;;55.70;37.00;;;6.60;95.20;;;;;;5072805;27;37949;-51
2022/03/24 02:41:52;;;;;;;52.90;37.22;;;6.70;95.30;;;;;;5072655;28;38049;-50
2022/03/24 02:44:20;;;;;;;59.63;39.33;;;6.70;95.20;;;;;;5071216;28;37386;-52
2022/03/24 02:46:48;;;;;;;55.75;36.30;;;6.70;95.10;;;;;;5071389;28;37635;-52
2022/03/24 02:49:16;;;;;;;57.80;40.55;;;6.70;95.10;;;;;;5072196;28;38378;-52
2022/03/24 02:51:44;;;;;;;57.25;38.30;;;6.80;95.20;;;;;;5070896;28;36152;-53
2022/03/24 02:54:12;;;;;;;56.45;38.75;;;6.70;95.20;;;;;;5072557;27;36829;-52
2022/03/24 02:56:42;;;;;;;51.55;35.65;;;6.70;95.30;;;;;;5072363;27;37481;-52
2022/03/24 02:59:10;;;;;;;58.95;38.00;;;6.70;95.60;;;;;;5071117;28;36413;-52
2022/03/24 03:01:41;;;;;;;53.80;36.88;;;6.70;95.30;;;;;;5072628;27;36181;-53
2022/03/24 03:04:08;;;;;;;56.55;38.58;;;6.70;95.30;;;;;;5072824;27;36743;-53
2022/03/24 03:06:36;;;;;;;53.70;36.58;;;6.70;95.30;;;;;;5072382;28;38066;-51
2022/03/24 03:09:05;;;;;;;55.72;37.17;;;6.60;95.30;;;;;;5072311;27;38320;-51
2022/03/24 03:11:33;;;;;;;55.97;37.67;;;6.60;95.40;;;;;;5071919;28;37433;-52
2022/03/24 03:14:02;;;;;;;60.08;37.78;;;6.60;95.40;;;;;;5072052;27;35477;-53
2022/03/24 03:16:29;;;;;;;59.00;38.45;;;6.60;95.40;;;;;;5071459;27;37448;-52
2022/03/24 03:18:57;;;;;;;61.97;39.75;;;6.60;95.40;;;;;;5071520;27;38228;-53
2022/03/24 03:21:26;;;;;;;64.03;41.80;;;6.60;95.50;;;;;;5071509;28;37967;-50
2022/03/24 03:23:54;;;;;;;57.60;38.88;;;6.60;95.50;;;;;;5071313;27;37340;-52
2022/03/24 03:26:23;;;;;;;59.40;38.92;;;6.60;95.50;;;;;;5071483;27;37681;-52
2022/03/24 03:28:52;;;;;;;55.80;38.63;;;6.60;95.50;;;;;;5072081;27;37957;-53
2022/03/24 03:31:21;;;;;;;61.95;43.58;;;6.50;95.50;;;;;;5071605;28;36969;-53
2022/03/24 03:33:50;;;;;;;31.67;21.70;;;6.60;95.70;;;;;;5072261;27;36943;-53
2022/03/24 03:36:18;;;;;;;31.45;21.27;;;6.60;96.30;;;;;;5075059;28;36486;-51
2022/03/24 03:38:46;;;;;;;26.77;18.92;;;6.60;96.40;;;;;;5074720;28;38362;-52
2022/03/24 03:41:14;;;;;;;34.35;21.73;;;6.60;96.60;;;;;;5076001;27;38588;-51
2022/03/24 03:43:41;;;;;;;32.55;22.55;;;6.50;96.40;;;;;;5073838;27;37501;-52
2022/03/24 03:46:09;;;;;;;34.75;23.73;;;6.50;96.30;;;;;;5075179;27;36279;-52
2022/03/24 03:48:38;;;;;;;35.67;23.42;;;6.50;96.30;;;;;;5074354;27;38215;-52
2022/03/24 03:51:07;;;;;;;40.88;28.63;;;6.60;96.10;;;;;;5074767;28;37442;-52
2022/03/24 03:53:35;;;;;;;44.45;30.20;;;6.60;95.70;;;;;;5073716;28;35571;-52
2022/03/24 03:56:03;;;;;;;50.22;34.70;;;6.60;95.70;;;;;;5074652;28;37215;-52
2022/03/24 03:58:30;;;;;;;54.75;34.15;;;6.70;95.70;;;;;;5072409;27;37793;-51
2022/03/24 04:00:58;;;;;;;55.00;37.92;;;6.60;95.60;;;;;;5074552;28;36173;-51
2022/03/24 04:03:26;;;;;;;61.55;39.03;;;6.60;95.50;;;;;;5072718;27;36546;-51
2022/03/24 04:05:57;;;;;;;60.92;41.45;;;6.60;95.70;;;;;;5073946;27;37536;-52
2022/03/24 04:08:24;;;;;;;57.75;39.83;;;6.70;95.90;;;;;;5074131;28;37574;-51
2022/03/24 04:10:52;;;;;;;57.50;40.10;;;6.70;95.70;;;;;;5073334;28;36483;-52
2022/03/24 04:13:21;;;;;;;58.80;40.13;;;6.70;95.40;;;;;;5073134;28;37122;-53
2022/03/24 04:15:50;;;;;;;62.22;39.85;;;6.70;95.30;;;;;;5073791;27;36202;-53
2022/03/24 04:18:18;;;;;;;64.38;43.97;;;6.70;95.30;;;;;;5073533;28;40058;-52
2022/03/24 04:20:46;;;;;;;68.43;43.63;;;6.60;95.20;;;;;;5073926;27;36890;-51
2022/03/24 04:23:15;;;;;;;64.28;41.17;;;6.60;95.20;;;;;;5074570;28;36841;-50
2022/03/24 04:25:42;;;;;;;63.30;41.38;;;6.60;95.30;;;;;;5075012;27;39175;-53
2022/03/24 04:28:10;;;;;;;56.55;39.25;;;6.60;95.10;;;;;;5074261;27;38411;-51
2022/03/24 04:30:39;;;;;;;58.20;39.20;;;6.50;95.10;;;;;;5075012;27;37673;-52
2022/03/24 04:33:06;;;;;;;52.88;37.03;;;6.50;95.30;;;;;;5075130;28;35601;-52
2022/03/24 04:35:35;;;;;;;57.03;38.70;;;6.50;95.30;;;;;;5075203;28;36826;-52
2022/03/24 04:38:04;;;;;;;56.28;38.30;;;6.40;95.30;;;;;;5073466;27;37701;-52
2022/03/24 04:40:32;;;;;;;57.53;38.60;;;6.40;95.30;;;;;;5074242;27;37527;-52
2022/03/24 04:43:00;;;;;;;60.17;40.33;;;6.40;95.40;;;;;;5074572;27;37144;-49
2022/03/24 04:45:29;;;;;;;58.67;39.28;;;6.30;95.60;;;;;;5073009;27;39481;-52
2022/03/24 04:47:56;;;;;;;60.75;40.67;;;6.30;95.70;;;;;;5072398;28;38196;-51
2022/03/24 04:50:24;;;;;;;60.13;40.13;;;6.30;95.70;;;;;;5074350;27;38680;-53
2022/03/24 04:52:51;;;;;;;61.30;39.53;;;6.20;95.80;;;;;;5073989;27;36686;-52
2022/03/24 04:55:19;;;;;;;53.78;37.17;;;6.20;95.80;;;;;;5072783;28;37599;-52
2022/03/24 04:57:47;;;;;;;56.83;35.50;;;6.20;95.90;;;;;;5073379;28;37498;-52
2022/03/24 05:00:18;;;;;;;59.08;38.45;;;6.20;95.80;;;;;;5073392;27;36198;-53
2022/03/24 05:02:45;;;;;;;62.28;39.85;;;6.20;95.70;;;;;;5073925;27;36649;-51
2022/03/24 05:05:13;;;;;;;60.30;39.22;;;6.20;95.70;;;;;;5074736;28;37456;-51
2022/03/24 05:07:41;;;;;;;55.33;36.42;;;6.20;95.80;;;;;;5074046;27;36652;-51
2022/03/24 05:10:09;;;;;;;59.70;37.25;;;6.10;95.80;;;;;;5074068;28;37871;-51
2022/03/24 05:12:39;;;;;;;57.97;38.08;;;6.10;95.90;;;;;;5073835;28;37368;-50
2022/03/24 05:15:13;;;;;;;56.95;37.47;;;6.10;95.90;;;;;;5073137;28;39088;-51
2022/03/24 05:17:41;;;;;;;56.90;38.10;;;6.10;96.00;;;;;;5074451;27;36423;-51
2022/03/24 05:20:09;;;;;;;54.38;34.65;;;6.10;95.90;;;;;;5073707;28;37690;-52
2022/03/24 05:22:37;;;;;;;58.58;38.25;;;6.10;96.00;;;;;;5073981;27;37763;-52
2022/03/24 05:25:07;;;;;;;58.05;38.55;;;6.10;95.90;;;;;;5073282;27;37592;-51
2022/03/24 05:27:35;;;;;;;58.05;36.67;;;6.10;95.80;;;;;;5073271;28;36362;-52
2022/03/24 05:30:03;;;;;;;59.88;39.67;;;6.10;95.80;;;;;;5072360;28;37649;-53
2022/03/24 05:32:32;;;;;;;61.80;40.50;;;6.10;95.80;;;;;;5073570;28;39759;-51
2022/03/24 05:35:00;;;;;;;57.35;39.50;;;6.10;95.90;;;;;;5072773;28;36770;-51
2022/03/24 05:37:28;;;;;;;64.97;41.72;;;6.10;95.90;;;;;;5074046;27;39605;-51
2022/03/24 05:39:55;;;;;;;63.22;40.25;;;6.10;96.10;;;;;;5072001;28;37530;-52
2022/03/24 05:42:22;;;;;;;53.67;36.83;;;6.20;96.20;;;;;;5073173;27;37617;-52
2022/03/24 05:44:50;;;;;;;60.15;39.47;;;6.20;95.90;;;;;;5073214;27;37216;-52
2022/03/24 05:47:17;;;;;;;59.63;38.72;;;6.20;95.90;;;;;;5073266;28;38915;-53
2022/03/24 05:49:46;;;;;;;52.45;34.25;;;6.30;95.90;;;;;;5073505;27;37720;-51
2022/03/24 05:52:14;;;;;;;51.20;33.42;;;6.40;95.70;;;;;;5073344;28;37643;-51
2022/03/24 05:54:41;;;;;;;46.88;31.42;;;6.40;95.50;;;;;;5073096;28;37420;-52
2022/03/24 05:57:10;;;;;;;55.28;35.47;;;6.50;95.40;;;;;;5072068;28;38734;-51
2022/03/24 05:59:38;;;;;;;65.35;39.65;;;6.60;95.50;;;;;;5073637;27;37382;-52
2022/03/24 06:02:06;;;;;;;48.50;33.33;;;6.50;95.50;;;;;;5073414;27;37332;-51
2022/03/24 06:04:35;;;;;;;50.42;32.40;;;6.60;95.80;;;;;;5073277;28;37468;-53
2022/03/24 06:07:04;;;;;;;46.58;31.05;;;6.70;95.80;;;;;;5072651;28;37636;-51
2022/03/24 06:09:32;;;;;;;50.95;33.05;;;6.90;95.60;;;;;;5072358;27;38391;-51
2022/03/24 06:11:59;;;;;;;40.83;27.83;;;7.00;95.30;;;;;;5072966;27;35718;-52
2022/03/24 06:14:27;;;;;;;37.38;25.35;;;7.00;95.20;;;;;;5073336;28;38323;-52
2022/03/24 06:16:54;;;;;;;42.17;28.73;;;7.10;95.20;;;;;;5072923;27;39471;-53
2022/03/24 06:19:22;;;;;;;44.08;29.38;;;7.10;95.20;;;;;;5073251;28;38119;-52
2022/03/24 06:21:49;;;;;;;29.58;21.02;;;7.10;95.50;;;;;;5072814;27;36503;-53
2022/03/24 06:24:18;;;;;;;29.20;19.30;;;7.10;95.90;;;;;;5073852;27;40086;-51
2022/03/24 06:26:45;;;;;;;30.25;19.80;;;7.10;96.40;;;;;;5073733;27;37582;-52
2022/03/24 06:29:13;;;;;;;42.85;25.38;;;7.30;96.60;;;;;;5073678;28;37902;-51
2022/03/24 06:31:40;;;;;;;30.90;21.20;;;7.40;96.70;;;;;;5073374;27;36821;-52
2022/03/24 06:34:08;;;;;;;25.92;17.65;;;7.50;96.80;;;;;;5072581;27;38230;-54
2022/03/24 06:36:36;;;;;;;35.50;23.40;;;7.60;96.90;;;;;;5073118;27;38225;-52
2022/03/24 06:39:03;;;;;;;53.63;25.48;;;7.70;96.50;;;;;;5072712;27;36210;-52
2022/03/24 06:41:32;;;;;;;54.95;29.08;;;7.80;96.50;;;;;;5073765;27;37614;-53
2022/03/24 06:43:59;;;;;;;41.15;25.67;;;8.00;96.40;;;;;;5073150;27;41234;-51
2022/03/24 06:46:27;;;;;;;45.20;27.17;;;8.20;96.20;;;;;;5065890;27;38409;-52
2022/03/24 06:48:55;;;;;;;44.58;25.75;;;8.40;96.10;;;;;;5067729;27;37316;-53
2022/03/24 06:51:23;;;;;;;28.13;17.15;;;8.50;96.20;;;;;;5069561;27;39007;-52
2022/03/24 06:53:50;;;;;;;23.35;16.85;;;8.50;95.30;;;;;;5068355;27;38281;-53
2022/03/24 06:56:18;;;;;;;26.90;18.00;;;8.50;95.30;;;;;;5066551;28;37607;-54
2022/03/24 06:58:47;;;;;;;26.60;19.98;;;8.60;95.30;;;;;;5063426;28;37182;-53
2022/03/24 07:01:15;;;;;;;37.55;24.80;;;8.60;95.60;;;;;;5067415;28;35587;-54
2022/03/24 07:03:43;;;;;;;43.72;30.85;;;8.70;96.00;;;;;;5065505;28;39386;-54
2022/03/24 07:06:11;;;;;;;50.47;35.45;;;8.70;95.90;;;;;;5065980;28;39408;-54
2022/03/24 07:08:39;;;;;;;52.42;40.00;;;9.00;96.10;;;;;;5064938;28;37977;-53
2022/03/24 07:11:07;;;;;;;49.17;35.28;;;9.10;95.70;;;;;;5069880;28;37085;-52
2022/03/24 07:13:35;;;;;;;54.63;38.67;;;9.10;95.80;;;;;;5069700;28;36153;-53
2022/03/24 07:16:03;;;;;;;51.17;36.42;;;9.00;95.40;;;;;;5070435;27;40132;-53
2022/03/24 07:18:31;;;;;;;50.42;36.75;;;9.10;95.50;;;;;;5071870;28;36018;-56
2022/03/24 07:20:58;;;;;;;60.72;43.53;;;9.10;95.80;;;;;;5070305;27;36838;-53
2022/03/24 07:23:25;;;;;;;61.03;40.17;;;9.20;95.80;;;;;;5070711;28;37405;-52
2022/03/24 07:25:53;;;;;;;59.97;40.63;;;9.40;95.50;;;;;;5071436;28;37009;-53
2022/03/24 07:28:20;;;;;;;53.08;38.95;;;9.60;95.00;;;;;;5070412;28;38755;-53
2022/03/24 07:30:50;;;;;;;65.63;42.97;;;9.70;94.70;;;;;;5068518;28;35572;-54
2022/03/24 07:33:20;;;;;;;69.95;44.20;;;9.70;94.80;;;;;;5070221;27;39232;-54
2022/03/24 07:35:48;;;;;;;64.38;45.97;;;9.80;94.80;;;;;;5070936;28;37262;-53
2022/03/24 07:38:16;;;;;;;66.72;45.30;;;9.90;94.80;;;;;;5070879;28;37867;-53
2022/03/24 07:40:43;;;;;;;66.63;47.03;;;10.10;94.90;;;;;;5070946;27;36439;-53
2022/03/24 07:43:11;;;;;;;65.25;46.38;;;10.20;94.70;;;;;;5070372;28;37368;-53
2022/03/24 07:45:41;;;;;;;70.15;49.55;;;10.30;94.60;;;;;;5069948;27;37601;-53
2022/03/24 07:48:13;;;;;;;65.00;46.95;;;10.40;94.90;;;;;;5070238;28;38389;-54
2022/03/24 07:50:44;;;;;;;69.80;47.97;;;10.50;94.70;;;;;;5069881;27;37204;-54
2022/03/24 07:53:49;;;;;;;65.70;46.42;;;10.70;94.80;;;;;;5070383;27;38552;-54
2022/03/24 07:56:17;;;;;;;;;;;10.90;94.40;;;;;;5061410;27;38643;-54
2022/03/24 07:58:44;;;;;;;71.82;49.60;;;11.10;94.50;;;;;;5070449;28;35434;-54
2022/03/24 08:01:12;;;;;;;74.88;52.67;;;11.20;94.00;;;;;;5071216;28;36441;-54
2022/03/24 08:03:40;;;;;;;74.88;54.40;;;11.40;93.80;;;;;;5068789;27;38985;-55
2022/03/24 08:06:08;;;;;;;80.15;54.55;;;11.60;93.60;;;;;;5069825;28;38570;-54
2022/03/24 08:08:36;;;;;;;72.43;55.22;;;11.80;93.50;;;;;;5070365;28;38015;-54
2022/03/24 08:11:03;;;;;;;71.65;52.42;;;12.10;92.60;;;;;;5069568;28;36426;-54
2022/03/24 08:13:30;;;;;;;70.68;52.53;;;12.30;92.00;;;;;;5070364;28;39092;-54
2022/03/24 08:15:58;;;;;;;75.22;56.28;;;12.60;91.70;;;;;;5068868;28;37667;-55
2022/03/24 08:18:25;;;;;;;70.05;52.47;;;12.90;90.60;;;;;;5070569;27;37430;-54
2022/03/24 08:20:53;;;;;;;67.32;53.85;;;13.10;89.60;;;;;;5068677;27;36690;-54
2022/03/24 08:23:22;;;;;;;69.15;54.00;;;13.50;87.80;;;;;;5070269;27;36181;-55
2022/03/24 08:25:50;;;;;;;64.55;50.35;;;13.90;85.30;;;;;;5070138;28;37736;-54
2022/03/24 08:28:17;;;;;;;67.70;51.35;;;14.20;84.50;;;;;;5069723;27;36371;-55
2022/03/24 08:30:45;;;;;;;65.63;52.97;;;14.40;83.00;;;;;;5070745;27;37543;-55
2022/03/24 08:33:13;;;;;;;67.65;50.55;;;14.70;82.20;;;;;;5068979;27;37594;-55
2022/03/24 08:35:42;;;;;;;62.42;48.60;;;14.80;80.40;;;;;;5069851;27;38332;-55
2022/03/24 08:38:10;;;;;;;59.05;47.13;;;15.00;79.00;;;;;;5069736;27;39092;-55
2022/03/24 08:40:39;;;;;;;58.28;47.90;;;15.10;76.60;;;;;;5069860;28;37704;-55
2022/03/24 08:43:07;;;;;;;60.83;48.22;;;15.10;76.00;;;;;;5070263;27;37797;-55
2022/03/24 08:45:36;;;;;;;61.72;46.08;;;15.20;74.50;;;;;;5069162;28;39071;-55
2022/03/24 08:48:04;;;;;;;55.28;44.97;;;15.40;72.20;;;;;;5068692;28;38753;-55
2022/03/24 08:50:31;;;;;;;62.78;46.40;;;15.50;70.60;;;;;;5067969;28;35440;-54
2022/03/24 08:52:59;;;;;;;53.72;45.53;;;15.60;70.50;;;;;;5068161;27;39106;-54
2022/03/24 08:55:27;;;;;;;57.10;45.35;;;15.70;71.00;;;;;;5067766;27;38882;-54
2022/03/24 08:57:55;;;;;;;59.67;45.75;;;15.60;71.30;;;;;;5068189;27;37473;-54
2022/03/24 09:00:23;;;;;;;58.63;46.33;;;15.80;71.10;;;;;;5069318;28;38077;-54
2022/03/24 09:02:53;;;;;;;58.72;46.92;;;16.00;71.00;;;;;;5069232;28;36188;-54
2022/03/24 09:05:21;;;;;;;62.60;45.95;;;16.30;69.10;;;;;;5068281;27;38662;-54
2022/03/24 09:07:49;;;;;;;59.88;47.72;;;16.60;68.10;;;;;;5069860;28;37916;-53
2022/03/24 09:10:17;;;;;;;59.13;45.88;;;16.90;66.00;;;;;;5068274;28;37313;-55
2022/03/24 09:12:46;;;;;;;58.67;45.50;;;17.30;65.20;;;;;;5068781;27;37000;-53
2022/03/24 09:15:17;;;;;;;50.35;44.03;;;17.60;63.10;;;;;;5068270;27;37850;-54
2022/03/24 09:17:45;;;;;;;57.20;44.78;;;17.80;61.60;;;;;;5068399;28;36359;-54
2022/03/24 09:20:14;;;;;;;60.83;45.63;;;17.90;61.10;;;;;;5068236;27;36854;-54
2022/03/24 09:22:45;;;;;;;54.63;44.20;;;18.00;60.70;;;;;;5067989;28;37221;-54
2022/03/24 09:25:14;;;;;;;51.85;44.00;;;18.30;59.50;;;;;;5068723;27;37790;-54
2022/03/24 09:27:43;;;;;;;53.30;44.28;;;18.70;57.60;;;;;;5069079;28;38544;-54
2022/03/24 09:30:14;;;;;;;50.50;41.55;;;19.10;56.10;;;;;;5068645;28;36972;-54
2022/03/24 09:32:45;;;;;;;49.28;42.05;;;19.50;55.00;;;;;;5067663;28;38328;-55
2022/03/24 09:35:13;;;;;;;54.30;43.13;;;19.80;53.50;;;;;;5068123;27;38524;-55
2022/03/24 09:37:40;;;;;;;51.25;42.05;;;20.00;52.80;;;;;;5068479;28;37925;-54
2022/03/24 09:40:09;;;;;;;50.22;40.67;;;20.10;52.20;;;;;;5068622;27;38419;-55
2022/03/24 09:42:38;;;;;;;53.88;42.97;;;20.00;52.10;;;;;;5068660;28;38047;-55
2022/03/24 09:45:08;;;;;;;50.05;42.33;;;19.90;52.00;;;;;;5068171;28;38205;-55
2022/03/24 09:47:37;;;;;;;55.72;42.53;;;19.80;52.10;;;;;;5068704;28;37361;-55
2022/03/24 09:50:07;;;;;;;60.75;43.30;;;19.80;52.30;;;;;;5068132;28;38293;-54
2022/03/24 09:52:35;;;;;;;55.08;44.60;;;19.80;52.90;;;;;;5068063;27;38269;-55
2022/03/24 09:55:02;;;;;;;52.03;43.10;;;20.00;52.50;;;;;;5068766;27;36592;-55
2022/03/24 09:57:30;;;;;;;52.55;42.88;;;20.10;51.80;;;;;;5068542;28;38310;-55
2022/03/24 09:59:57;;;;;;;51.72;43.40;;;20.30;51.10;;;;;;5069150;27;36905;-54
2022/03/24 10:02:24;;;;;;;52.97;42.47;;;20.50;50.10;;;;;;5067582;27;36265;-55
2022/03/24 10:04:53;;;;;;;50.33;40.58;;;20.60;49.40;;;;;;5066960;27;39189;-54
2022/03/24 10:07:25;;;;;;;48.75;39.80;;;20.70;48.60;;;;;;5068455;28;39582;-54
2022/03/24 10:09:55;;;;;;;50.00;40.88;;;20.80;47.90;;;;;;5069062;27;36151;-54
2022/03/24 10:12:26;;;;;;;53.60;42.58;;;20.80;48.50;;;;;;5068296;28;20086;-54
2022/03/24 10:15:01;;;;;;;49.70;40.72;;;20.70;48.70;;;;;;5067270;27;36287;-54
2022/03/24 10:17:28;;;;;;;52.28;42.70;;;20.70;47.90;;;;;;5066246;27;37274;-54
2022/03/24 10:19:57;;;;;;;46.70;39.85;;;20.70;47.80;;;;;;5066744;28;37555;-54
2022/03/24 10:22:26;;;;;;;50.95;40.08;;;20.70;47.40;;;;;;5066244;28;37053;-55
2022/03/24 10:24:54;;;;;;;45.67;37.00;;;20.80;47.40;;;;;;5068807;27;37260;-55
2022/03/24 10:27:23;;;;;;;49.50;39.58;;;20.90;46.20;;;;;;5068443;27;37169;-54
2022/03/24 10:29:54;;;;;;;50.08;37.75;;;21.00;45.80;;;;;;5068557;27;36668;-54
2022/03/24 10:32:23;;;;;;;45.40;38.05;;;21.20;45.00;;;;;;5068102;28;36250;-55
2022/03/24 10:34:51;;;;;;;49.85;38.53;;;21.40;44.10;;;;;;5067520;28;38548;-55
2022/03/24 10:37:19;;;;;;;53.78;37.90;;;21.90;43.90;;;;;;5068741;28;38759;-55
2022/03/24 10:39:59;;;;;;;41.63;32.55;;;22.20;43.10;;;;;;5067490;27;35535;-55
2022/03/24 10:42:29;;;;;;;47.95;34.60;;;22.50;40.50;;;;;;5067467;28;40542;-55
2022/03/24 10:45:06;;;;;;;48.10;36.47;;;22.70;40.50;;;;;;5067630;28;36427;-55
2022/03/24 10:47:38;;;;;;;48.33;38.65;;;22.90;40.10;;;;;;5068125;28;38861;-55
2022/03/24 10:50:38;;;;;;;48.25;37.58;;;22.90;40.70;;;;;;5067702;28;36338;-55
2022/03/24 10:53:08;;;;;;;45.83;37.63;;;22.90;40.20;;;;;;5003398;28;39736;-55
2022/03/24 10:55:58;;;;;;;51.58;37.63;;;22.60;41.50;;;;;;5054834;27;40098;-55
2022/03/24 10:58:31;;;;;;;46.75;37.05;;;22.40;41.90;;;;;;5057506;28;38677;-55
2022/03/24 11:01:00;;;;;;;;;;;22.10;42.30;;;;;;5067217;27;37675;-55
2022/03/24 11:03:27;;;;;;;46.28;35.65;;;21.80;41.00;;;;;;5065442;27;39534;-55
2022/03/24 11:06:09;;;;;;;47.17;32.85;;;21.60;43.00;;;;;;5066680;27;36402;-55
2022/03/24 11:08:37;;;;;;;43.83;31.90;;;21.40;41.40;;;;;;5067539;27;37472;-55
2022/03/24 11:11:10;;;;;;;39.13;29.08;;;21.30;42.40;;;;;;5067552;27;36993;-55
2022/03/24 11:13:49;;;;;;;34.95;29.35;;;21.20;41.60;;;;;;5066842;28;37256;-55
2022/03/24 11:16:18;;;;;;;43.58;33.08;;;21.00;41.40;;;;;;5066781;27;38116;-55
2022/03/24 11:18:47;;;;;;;46.17;34.15;;;20.80;42.50;;;;;;5066649;27;37540;-55
2022/03/24 11:21:21;;;;;;;43.92;31.45;;;20.80;43.40;;;;;;5065531;27;37646;-55
2022/03/24 11:23:53;;;;;;;37.75;27.15;;;20.70;42.40;;;;;;5067717;27;37610;-55
2022/03/24 11:26:22;;;;;;;43.35;29.55;;;20.60;41.20;;;;;;5066845;27;37828;-54
2022/03/24 11:28:50;;;;;;;45.30;32.45;;;20.60;41.10;;;;;;5064532;27;38522;-55
2022/03/24 11:31:19;;;;;;;42.53;30.35;;;20.60;41.70;;;;;;5065800;27;36776;-54
2022/03/24 11:33:48;;;;;;;48.65;37.88;;;20.80;42.20;;;;;;5065894;28;38397;-55
2022/03/24 11:36:17;;;;;;;50.00;38.10;;;20.80;43.10;;;;;;5065545;28;38384;-55
2022/03/24 11:38:48;;;;;;;46.85;37.20;;;20.60;43.90;;;;;;5063769;27;37956;-55
2022/03/24 11:41:24;;;;;;;45.15;36.13;;;20.50;44.00;;;;;;5065486;27;37272;-55
2022/03/24 11:43:55;;;;;;;51.80;37.88;;;20.40;44.50;;;;;;5064901;27;37394;-55
2022/03/24 11:46:32;;;;;;;48.00;36.45;;;20.30;45.20;;;;;;5064501;27;39355;-55
2022/03/24 11:49:18;;;;;;;46.50;35.13;;;20.10;44.70;;;;;;5065711;28;37995;-55
2022/03/24 11:51:47;;;;;;;41.45;32.65;;;19.90;45.10;;;;;;5065474;27;39136;-55
2022/03/24 11:54:26;;;;;;;43.38;32.40;;;19.70;45.30;;;;;;5065663;27;36191;-55
2022/03/24 11:57:31;;;;;;;38.40;30.73;;;19.50;44.00;;;;;;5068466;27;38229;-55
2022/03/24 12:00:47;;;;;;;42.78;31.85;;;19.40;43.80;;;;;;5070066;27;37086;-55
2022/03/24 12:03:41;;;;;;;42.55;30.38;;;19.40;44.60;;;;;;5065094;28;37360;-55
2022/03/24 12:06:08;;;;;;;;;;;19.40;43.20;;;;;;5066258;27;37636;-54
2022/03/24 12:08:50;;;;;;;38.08;28.42;;;19.40;42.10;;;;;;5066366;28;39350;-55
2022/03/24 12:11:39;;;;;;;44.00;30.30;;;19.50;43.70;;;;;;5065272;27;37100;-54
2022/03/24 12:14:11;;;;;;;36.85;28.95;;;19.40;41.00;;;;;;5066421;28;36717;-55
2022/03/24 12:16:40;;;;;;;41.08;30.50;;;19.20;42.30;;;;;;5068097;27;38192;-54
2022/03/24 12:19:29;;;;;;;38.05;28.70;;;19.20;42.10;;;;;;5067846;28;37426;-54
2022/03/24 12:21:58;;;;;;;40.78;27.60;;;19.10;41.80;;;;;;5068223;27;38855;-53
2022/03/24 12:24:35;;;;;;;42.55;29.45;;;19.00;41.10;;;;;;5068484;27;37208;-54
2022/03/24 12:27:05;;;;;;;35.78;28.30;;;18.90;41.20;;;;;;5068186;28;37615;-54
2022/03/24 12:29:34;;;;;;;40.25;29.50;;;18.80;41.10;;;;;;5067032;28;36343;-54
2022/03/24 12:32:05;;;;;;;36.25;27.23;;;18.80;41.30;;;;;;5067846;28;37358;-55
2022/03/24 12:34:45;;;;;;;34.63;26.80;;;18.70;40.80;;;;;;5064848;28;35539;-54
2022/03/24 12:37:39;;;;;;;40.33;27.42;;;18.70;40.00;;;;;;5067483;28;37550;-55
2022/03/24 12:40:13;;;;;;;32.30;25.52;;;18.70;40.10;;;;;;5067485;28;37740;-54
2022/03/24 12:42:42;;;;;;;39.83;27.23;;;18.60;39.90;;;;;;5068530;27;37608;-54
2022/03/24 12:45:12;;;;;;;37.25;26.75;;;18.50;40.30;;;;;;5067718;28;37246;-54
2022/03/24 12:47:44;;;;;;;35.97;28.10;;;18.50;40.70;;;;;;5066023;27;38915;-54